< < Back
Terminal Aerodrome Forecast


Current Version              Previous Versions:   1  2  3  4  5  6  7  8  9  

Terminal Aerodrome Forecast

620
FTUS42 KCAE 260832 AAC
TAFCAE
TAF AMD
KCAE 260832Z 2609/2706 14004KT P6SM SCT020 OVC250
      TEMPO 2610/2613 5SM BR OVC010
     FM261500 16008KT P6SM BKN040=



Latest METAR

807
SAUS80 KWBC 261300
MTRCAE
METAR KCAE 261256Z 00000KT 5SM BR BKN006 OVC011 22/20 A3029 RMK AO2 CIG
004V009 SLP253 T02220200


USA.gov is the U.S. government's official web portal to all federal, state and local government web resources and services.